createdAt,value
2018-11-02T00:02:17.692Z,9.60
2018-11-02T00:04:44.800Z,11.67
2018-11-02T00:07:11.912Z,9.97
2018-11-02T00:09:39.068Z,10.70
2018-11-02T00:12:06.204Z,10.10
2018-11-02T00:14:33.298Z,13.03
2018-11-02T00:17:00.408Z,12.80
2018-11-02T00:19:31.470Z,10.90
2018-11-02T00:21:59.744Z,13.40
2018-11-02T00:24:27.206Z,11.33
2018-11-02T00:26:54.288Z,11.33
2018-11-02T00:29:21.393Z,13.17
2018-11-02T00:31:48.641Z,13.20
2018-11-02T00:34:15.653Z,13.07
2018-11-02T00:36:42.788Z,13.10
2018-11-02T00:39:10.304Z,12.83
2018-11-02T00:41:37.512Z,14.13
2018-11-02T00:44:05.068Z,12.50
2018-11-02T00:46:32.109Z,13.40
2018-11-02T00:48:59.329Z,14.43
2018-11-02T00:51:26.450Z,13.97
2018-11-02T00:53:53.614Z,15.77
2018-11-02T00:56:20.769Z,14.87
2018-11-02T00:58:47.847Z,15.67
2018-11-02T01:01:14.941Z,14.97
2018-11-02T01:03:42.404Z,14.07
2018-11-02T01:06:09.492Z,15.47
2018-11-02T01:08:36.588Z,14.67
2018-11-02T01:11:04.041Z,14.40
2018-11-02T01:13:31.159Z,15.37
2018-11-02T01:15:58.256Z,18.40
2018-11-02T01:18:25.356Z,16.20
2018-11-02T01:20:52.478Z,15.87
2018-11-02T01:23:19.624Z,16.37
2018-11-02T01:25:46.738Z,15.73
2018-11-02T01:28:13.871Z,18.40
2018-11-02T01:30:40.940Z,16.67
2018-11-02T01:33:08.044Z,17.97
2018-11-02T01:35:35.136Z,18.27
2018-11-02T01:38:02.245Z,16.83
2018-11-02T01:40:29.352Z,17.23
2018-11-02T01:42:56.428Z,19.37
2018-11-02T01:45:23.544Z,18.07
2018-11-02T01:47:50.645Z,18.07
2018-11-02T01:50:17.765Z,20.17
2018-11-02T01:52:44.880Z,18.27
2018-11-02T01:55:11.992Z,17.93
2018-11-02T01:57:39.089Z,17.93
2018-11-02T02:00:07.282Z,17.50
2018-11-02T02:02:34.389Z,16.67
2018-11-02T02:05:01.497Z,17.20
2018-11-02T02:07:28.612Z,16.93
2018-11-02T02:09:55.717Z,16.07
2018-11-02T02:12:22.827Z,15.87
2018-11-02T02:14:49.917Z,14.47
2018-11-02T02:17:17.009Z,15.27
2018-11-02T02:19:44.142Z,16.03
2018-11-02T02:22:11.241Z,14.57
2018-11-02T02:24:38.416Z,14.73
2018-11-02T02:27:06.148Z,14.67
2018-11-02T02:29:33.608Z,15.53
2018-11-02T02:32:00.688Z,16.57
2018-11-02T02:34:27.804Z,15.60
2018-11-02T02:36:54.905Z,16.43
2018-11-02T02:39:21.986Z,17.13
2018-11-02T02:41:49.087Z,16.50
2018-11-02T02:44:16.180Z,16.30
2018-11-02T02:46:43.313Z,19.67
2018-11-02T02:49:10.395Z,18.93
2018-11-02T02:51:37.479Z,22.20
2018-11-02T02:54:04.623Z,18.07
2018-11-02T02:56:31.730Z,17.23
2018-11-02T02:58:58.831Z,22.30
2018-11-02T03:01:25.949Z,17.37
2018-11-02T03:03:53.036Z,21.97
2018-11-02T03:06:20.144Z,20.63
2018-11-02T03:08:47.270Z,17.17
2018-11-02T03:11:14.563Z,15.23
2018-11-02T03:13:41.497Z,16.27
2018-11-02T03:16:08.579Z,17.53
2018-11-02T03:18:35.693Z,16.43
2018-11-02T03:21:02.780Z,15.93
2018-11-02T03:23:29.945Z,15.83
2018-11-02T03:25:57.061Z,14.35
2018-11-02T03:28:24.176Z,13.37
2018-11-02T03:30:51.269Z,16.47
2018-11-02T03:33:18.416Z,13.40
2018-11-02T03:35:45.508Z,16.50
2018-11-02T03:38:12.620Z,16.67
2018-11-02T03:40:39.745Z,9.87
2018-11-02T03:43:06.867Z,16.53
2018-11-02T03:45:33.964Z,10.90
2018-11-02T03:48:01.040Z,13.43
2018-11-02T03:50:28.144Z,13.15
2018-11-02T03:52:55.232Z,16.17
2018-11-02T03:55:22.324Z,12.07
2018-11-02T03:57:49.444Z,17.97
2018-11-02T04:00:16.560Z,13.67
2018-11-02T04:02:43.657Z,12.37
2018-11-02T04:05:10.756Z,14.83
2018-11-02T04:07:37.854Z,14.73
2018-11-02T04:10:06.696Z,13.13
2018-11-02T04:12:33.785Z,13.70
2018-11-02T04:15:00.913Z,19.60
2018-11-02T04:17:28.030Z,15.63
2018-11-02T04:19:55.128Z,10.30
2018-11-02T04:22:22.232Z,15.07
2018-11-02T04:24:49.352Z,13.57
2018-11-02T04:27:16.447Z,13.43
2018-11-02T04:29:43.537Z,13.07
2018-11-02T04:32:10.628Z,15.40
2018-11-02T04:34:37.737Z,19.77
2018-11-02T04:37:04.862Z,12.83
2018-11-02T04:39:31.952Z,12.97
2018-11-02T04:41:59.087Z,12.50
2018-11-02T04:44:26.180Z,12.17
2018-11-02T04:46:53.284Z,14.70
2018-11-02T04:49:20.378Z,15.50
2018-11-02T04:51:47.467Z,16.97
2018-11-02T04:54:14.560Z,16.30
2018-11-02T04:56:41.736Z,20.43
2018-11-02T04:59:08.836Z,16.27
2018-11-02T05:01:35.951Z,19.90
2018-11-02T05:04:03.101Z,16.07
2018-11-02T05:06:30.164Z,15.57
2018-11-02T05:08:57.259Z,18.37
2018-11-02T05:11:24.415Z,15.97
2018-11-02T05:13:51.489Z,18.23
2018-11-02T05:16:18.588Z,14.00
2018-11-02T05:18:45.716Z,18.03
2018-11-02T05:21:12.857Z,17.30
2018-11-02T05:23:39.920Z,16.13
2018-11-02T05:26:07.376Z,16.97
2018-11-02T05:28:34.857Z,13.93
2018-11-02T05:31:01.973Z,16.63
2018-11-02T05:33:29.152Z,17.63
2018-11-02T05:35:56.808Z,18.93
2018-11-02T05:38:23.916Z,18.57
2018-11-02T05:40:51.145Z,17.03
2018-11-02T05:43:18.561Z,18.10
2018-11-02T05:45:45.653Z,18.47
2018-11-02T05:48:12.745Z,15.87
2018-11-02T05:50:39.872Z,16.77
2018-11-02T05:53:06.962Z,17.57
2018-11-02T05:55:34.074Z,17.23
2018-11-02T05:58:01.201Z,19.27
2018-11-02T06:00:28.296Z,21.87
2018-11-02T06:02:55.419Z,23.23
2018-11-02T06:05:22.513Z,17.77
2018-11-02T06:07:49.701Z,19.03
2018-11-02T06:10:16.766Z,19.33
2018-11-02T06:12:43.896Z,18.90
2018-11-02T06:15:11.012Z,20.20
2018-11-02T06:17:38.119Z,21.73
2018-11-02T06:20:06.395Z,17.87
2018-11-02T06:22:33.561Z,20.87
2018-11-02T06:25:00.646Z,16.50
2018-11-02T06:27:27.754Z,19.10
2018-11-02T06:29:54.880Z,19.60
2018-11-02T06:32:22.010Z,20.00
2018-11-02T06:34:49.086Z,19.23
2018-11-02T06:37:16.208Z,18.03
2018-11-02T06:39:43.296Z,20.53
2018-11-02T06:42:10.416Z,17.73
2018-11-02T06:44:37.524Z,19.43
2018-11-02T06:47:04.749Z,19.90
2018-11-02T06:49:31.844Z,21.70
2018-11-02T06:51:58.974Z,19.73
2018-11-02T06:54:26.072Z,19.60
2018-11-02T06:56:53.185Z,18.33
2018-11-02T06:59:20.344Z,21.07
2018-11-02T07:01:47.417Z,18.97
2018-11-02T07:04:15.541Z,22.23
2018-11-02T07:06:42.727Z,24.03
2018-11-02T07:09:10.775Z,22.33
2018-11-02T07:11:37.900Z,21.43
2018-11-02T07:14:05.389Z,18.47
2018-11-02T07:16:32.564Z,19.53
2018-11-02T07:18:59.682Z,21.70
2018-11-02T07:21:26.801Z,22.60
2018-11-02T07:23:53.902Z,20.63
2018-11-02T07:26:21.044Z,23.93
2018-11-02T07:28:48.188Z,24.70
2018-11-02T07:31:15.317Z,23.73
2018-11-02T07:33:42.416Z,22.33
2018-11-02T07:36:09.509Z,25.47
2018-11-02T07:38:36.614Z,19.87
2018-11-02T07:41:03.968Z,21.70
2018-11-02T07:43:31.189Z,20.93
2018-11-02T07:45:58.293Z,26.97
2018-11-02T07:48:25.416Z,23.33
2018-11-02T07:50:52.539Z,23.30
2018-11-02T07:53:19.656Z,22.80
2018-11-02T07:55:46.780Z,20.33
2018-11-02T07:58:13.876Z,23.33
2018-11-02T08:00:41.004Z,22.47
2018-11-02T08:03:08.117Z,19.93
2018-11-02T08:05:35.247Z,20.93
2018-11-02T08:08:02.382Z,23.63
2018-11-02T08:10:29.484Z,23.20
2018-11-02T08:12:56.611Z,21.27
2018-11-02T08:15:23.716Z,20.40
2018-11-02T08:17:50.924Z,25.00
2018-11-02T08:20:17.953Z,22.77
2018-11-02T08:22:45.131Z,23.63
2018-11-02T08:25:12.520Z,24.60
2018-11-02T08:27:40.192Z,22.77
2018-11-02T08:30:10.210Z,20.97
2018-11-02T08:32:37.769Z,19.87
2018-11-02T08:35:06.720Z,19.13
2018-11-02T08:37:33.825Z,16.10
2018-11-02T08:40:00.932Z,19.70
2018-11-02T08:42:28.049Z,19.03
2018-11-02T08:44:55.165Z,20.73
2018-11-02T08:47:22.281Z,19.37
2018-11-02T08:49:49.397Z,19.73
2018-11-02T08:52:16.542Z,17.73
2018-11-02T08:54:43.638Z,17.97
2018-11-02T08:57:10.787Z,16.73
2018-11-02T08:59:38.111Z,19.33
2018-11-02T09:02:05.484Z,17.77
2018-11-02T09:04:32.606Z,15.93
2018-11-02T09:06:59.720Z,14.93
2018-11-02T09:09:26.804Z,18.00
2018-11-02T09:11:53.926Z,15.27
2018-11-02T09:14:21.009Z,16.40
2018-11-02T09:16:48.130Z,15.13
2018-11-02T09:19:15.271Z,15.07
2018-11-02T09:21:42.333Z,14.10
2018-11-02T09:24:09.424Z,14.47
2018-11-02T09:26:36.524Z,12.53
2018-11-02T09:29:03.782Z,12.47
2018-11-02T09:31:30.929Z,12.47
2018-11-02T09:33:58.017Z,11.43
2018-11-02T09:36:25.116Z,13.83
2018-11-02T09:38:52.232Z,12.53
2018-11-02T09:41:19.381Z,14.37
2018-11-02T09:43:46.492Z,12.50
2018-11-02T09:46:13.592Z,11.57
2018-11-02T09:48:40.709Z,13.33
2018-11-02T09:51:07.837Z,9.87
2018-11-02T09:53:34.992Z,10.70
2018-11-02T09:56:02.054Z,16.33
2018-11-02T09:58:29.229Z,9.17
2018-11-02T10:00:56.341Z,10.47
2018-11-02T10:03:23.525Z,11.13
2018-11-02T10:05:50.658Z,11.63
2018-11-02T10:08:17.830Z,10.30
2018-11-02T10:10:44.927Z,11.07
2018-11-02T10:13:12.033Z,10.60
2018-11-02T10:15:39.204Z,12.00
2018-11-02T10:18:06.301Z,11.63
2018-11-02T10:20:33.472Z,9.00
2018-11-02T10:23:00.589Z,8.30
2018-11-02T10:25:27.713Z,9.60
2018-11-02T10:27:54.900Z,7.87
2018-11-02T10:30:22.025Z,7.70
2018-11-02T10:32:51.174Z,6.97
2018-11-02T10:35:18.380Z,9.03
2018-11-02T10:37:45.876Z,7.97
2018-11-02T10:40:15.108Z,10.47
2018-11-02T10:42:43.052Z,9.13
2018-11-02T10:45:10.215Z,9.00
2018-11-02T10:47:37.745Z,7.60
2018-11-02T10:50:05.122Z,8.83
2018-11-02T10:52:32.366Z,9.07
2018-11-02T10:54:59.589Z,12.80
2018-11-02T10:57:26.736Z,9.37
2018-11-02T10:59:53.844Z,7.53
2018-11-02T11:02:22.780Z,7.17
2018-11-02T11:04:49.912Z,4.47
2018-11-02T11:07:17.021Z,6.90
2018-11-02T11:09:44.125Z,7.87
2018-11-02T11:12:11.398Z,5.47
2018-11-02T11:14:38.380Z,5.60
2018-11-02T11:17:05.529Z,6.67
2018-11-02T11:19:32.652Z,5.97
2018-11-02T11:21:59.788Z,7.23
2018-11-02T11:24:26.913Z,8.43
2018-11-02T11:26:54.046Z,7.20
2018-11-02T11:29:21.185Z,6.17
2018-11-02T11:31:48.297Z,7.20
2018-11-02T11:34:15.488Z,11.10
2018-11-02T11:36:42.608Z,6.50
2018-11-02T11:39:11.625Z,5.60
2018-11-02T11:41:38.743Z,6.77
2018-11-02T11:44:05.953Z,6.20
2018-11-02T11:46:33.076Z,5.60
2018-11-02T11:49:00.347Z,8.97
2018-11-02T11:51:27.344Z,7.87
2018-11-02T11:53:54.472Z,7.90
2018-11-02T11:56:21.593Z,8.97
2018-11-02T11:58:48.773Z,9.90
2018-11-02T12:01:15.851Z,9.73
2018-11-02T12:03:42.969Z,6.53
2018-11-02T12:06:10.084Z,5.50
2018-11-02T12:08:37.227Z,8.00
2018-11-02T12:11:04.676Z,5.27
2018-11-02T12:13:31.824Z,5.80
2018-11-02T12:15:58.968Z,7.30
2018-11-02T12:18:26.065Z,4.53
2018-11-02T12:20:53.192Z,7.27
2018-11-02T12:23:20.328Z,5.00
2018-11-02T12:25:47.454Z,5.85
2018-11-02T12:28:14.632Z,4.17
2018-11-02T12:30:41.826Z,4.07
2018-11-02T12:33:08.860Z,3.50
2018-11-02T12:35:35.961Z,2.97
2018-11-02T12:38:03.086Z,6.20
2018-11-02T12:40:30.224Z,4.90
2018-11-02T12:42:57.297Z,5.20
2018-11-02T12:45:24.429Z,4.67
2018-11-02T12:47:51.606Z,7.13
2018-11-02T12:50:21.263Z,4.53
2018-11-02T12:52:49.441Z,7.37
2018-11-02T12:55:16.893Z,8.53
2018-11-02T12:57:44.324Z,5.43
2018-11-02T13:00:13.946Z,4.30
2018-11-02T13:02:41.892Z,5.67
2018-11-02T13:05:09.570Z,6.33
2018-11-02T13:07:37.216Z,2.53
2018-11-02T13:10:04.358Z,5.83
2018-11-02T13:12:31.579Z,4.20
2018-11-02T13:14:58.680Z,5.90
2018-11-02T13:17:25.838Z,3.10
2018-11-02T13:19:52.888Z,3.47
2018-11-02T13:22:20.085Z,5.33
2018-11-02T13:24:47.084Z,4.20
2018-11-02T13:27:14.189Z,4.30
2018-11-02T13:29:41.296Z,4.70
2018-11-02T13:32:08.406Z,5.20
2018-11-02T13:34:35.513Z,3.10
2018-11-02T13:37:02.696Z,4.23
2018-11-02T13:39:29.708Z,4.07
2018-11-02T13:41:56.807Z,4.40
2018-11-02T13:44:23.894Z,3.03
2018-11-02T13:46:50.978Z,3.27
2018-11-02T13:49:18.114Z,5.43
2018-11-02T13:51:45.220Z,5.30
2018-11-02T13:54:12.682Z,3.97
2018-11-02T13:56:39.790Z,4.53
2018-11-02T13:59:06.937Z,4.00
2018-11-02T14:01:34.036Z,5.23
2018-11-02T14:04:01.159Z,4.90
2018-11-02T14:06:28.266Z,3.73
2018-11-02T14:08:55.355Z,4.23
2018-11-02T14:11:22.465Z,2.33
2018-11-02T14:13:49.540Z,5.23
2018-11-02T14:16:16.658Z,3.00
2018-11-02T14:18:43.793Z,3.27
2018-11-02T14:21:11.005Z,3.47
2018-11-02T14:23:38.117Z,4.03
2018-11-02T14:26:06.012Z,1.77
2018-11-02T14:28:33.130Z,1.60
2018-11-02T14:31:00.213Z,4.23
2018-11-02T14:33:27.316Z,2.50
2018-11-02T14:35:54.409Z,3.63
2018-11-02T14:38:21.500Z,2.30
2018-11-02T14:40:48.621Z,3.10
2018-11-02T14:43:15.721Z,2.23
2018-11-02T14:45:42.872Z,4.80
2018-11-02T14:48:09.979Z,3.53
2018-11-02T14:50:37.120Z,4.80
2018-11-02T14:53:04.332Z,3.10
2018-11-02T14:55:31.629Z,5.20
2018-11-02T14:57:58.549Z,5.57
2018-11-02T15:00:25.656Z,2.40
2018-11-02T15:02:52.746Z,4.00
2018-11-02T15:05:19.853Z,2.77
2018-11-02T15:07:46.952Z,3.50
2018-11-02T15:10:14.028Z,2.70
2018-11-02T15:12:41.121Z,4.27
2018-11-02T15:15:08.412Z,1.90
2018-11-02T15:17:35.536Z,2.63
2018-11-02T15:20:03.008Z,4.47
2018-11-02T15:22:30.112Z,5.23
2018-11-02T15:24:57.634Z,5.23
2018-11-02T15:27:24.776Z,3.20
2018-11-02T15:29:51.872Z,4.33
2018-11-02T15:32:18.971Z,2.20
2018-11-02T15:34:46.872Z,2.30
2018-11-02T15:37:13.956Z,4.00
2018-11-02T15:39:41.053Z,2.73
2018-11-02T15:42:08.136Z,6.97
2018-11-02T15:44:35.322Z,3.07
2018-11-02T15:47:02.336Z,3.87
2018-11-02T15:49:29.440Z,4.23
2018-11-02T15:51:56.552Z,2.27
2018-11-02T15:54:23.662Z,3.30
2018-11-02T15:56:50.740Z,2.20
2018-11-02T15:59:17.862Z,4.10
2018-11-02T16:01:44.968Z,4.23
2018-11-02T16:04:12.438Z,2.20
2018-11-02T16:06:39.633Z,2.40
2018-11-02T16:09:08.831Z,3.33
2018-11-02T16:11:35.923Z,3.63
2018-11-02T16:14:03.140Z,4.13
2018-11-02T16:16:30.204Z,2.63
2018-11-02T16:18:57.301Z,2.90
2018-11-02T16:21:24.391Z,2.57
2018-11-02T16:23:51.505Z,5.27
2018-11-02T16:26:18.601Z,4.97
2018-11-02T16:28:45.696Z,3.63
2018-11-02T16:31:12.800Z,3.50
2018-11-02T16:33:39.901Z,3.77
2018-11-02T16:36:06.985Z,4.43
2018-11-02T16:38:34.091Z,6.40
2018-11-02T16:41:01.188Z,3.80
2018-11-02T16:43:28.290Z,4.07
2018-11-02T16:45:55.392Z,2.27
2018-11-02T16:48:22.480Z,4.73
2018-11-02T16:50:49.609Z,3.57
2018-11-02T16:53:16.726Z,6.87
2018-11-02T16:55:43.836Z,4.30
2018-11-02T16:58:10.933Z,4.95
2018-11-02T17:00:38.121Z,4.33
2018-11-02T17:03:05.239Z,4.77
2018-11-02T17:05:32.381Z,3.80
2018-11-02T17:07:59.560Z,3.40
2018-11-02T17:10:26.676Z,3.53
2018-11-02T17:12:53.776Z,6.80
2018-11-02T17:15:20.862Z,4.90
2018-11-02T17:17:47.952Z,3.70
2018-11-02T17:20:16.424Z,2.80
2018-11-02T17:22:43.588Z,5.03
2018-11-02T17:25:11.355Z,6.83
2018-11-02T17:27:38.801Z,5.30
2018-11-02T17:30:09.764Z,6.17
2018-11-02T17:32:36.968Z,9.93
2018-11-02T17:35:04.088Z,9.07
2018-11-02T17:37:31.181Z,10.00
2018-11-02T17:39:58.272Z,19.93
2018-11-02T17:42:25.390Z,18.60
2018-11-02T17:44:52.460Z,14.23
2018-11-02T17:47:19.629Z,11.87
2018-11-02T17:49:46.802Z,15.80
2018-11-02T17:52:13.894Z,15.33
2018-11-02T17:54:40.992Z,15.27
2018-11-02T17:57:08.124Z,15.07
2018-11-02T17:59:35.336Z,13.93
2018-11-02T18:02:02.360Z,13.70
2018-11-02T18:04:29.465Z,12.57
2018-11-02T18:06:56.573Z,13.53
2018-11-02T18:09:23.680Z,10.67
2018-11-02T18:11:50.963Z,16.20
2018-11-02T18:14:18.012Z,13.03
2018-11-02T18:16:45.116Z,12.33
2018-11-02T18:19:12.200Z,8.77
2018-11-02T18:21:39.324Z,9.10
2018-11-02T18:24:06.494Z,11.73
2018-11-02T18:26:33.533Z,12.80
2018-11-02T18:29:00.642Z,11.63
2018-11-02T18:31:27.725Z,10.33
2018-11-02T18:33:54.829Z,10.57
2018-11-02T18:36:21.926Z,12.67
2018-11-02T18:38:49.032Z,12.53
2018-11-02T18:41:16.130Z,11.97
2018-11-02T18:43:43.232Z,12.97
2018-11-02T18:46:10.360Z,12.90
2018-11-02T18:48:37.469Z,12.47
2018-11-02T18:51:04.885Z,12.37
2018-11-02T18:53:31.988Z,12.43
2018-11-02T18:55:59.088Z,14.00
2018-11-02T18:58:26.250Z,12.20
2018-11-02T19:00:53.336Z,14.23
2018-11-02T19:03:20.441Z,14.63
2018-11-02T19:05:47.604Z,11.60
2018-11-02T19:08:14.660Z,16.33
2018-11-02T19:10:41.760Z,16.00
2018-11-02T19:13:08.902Z,14.77
2018-11-02T19:15:35.994Z,16.57
2018-11-02T19:18:03.105Z,12.93
2018-11-02T19:20:30.232Z,13.13
2018-11-02T19:22:57.325Z,15.17
2018-11-02T19:25:24.436Z,15.03
2018-11-02T19:27:51.632Z,13.67
2018-11-02T19:30:18.746Z,16.50
2018-11-02T19:32:45.878Z,13.93
2018-11-02T19:37:55.559Z,12.03
2018-11-02T19:40:22.604Z,12.80
2018-11-02T19:42:49.700Z,13.33
2018-11-02T19:45:16.784Z,14.73
2018-11-02T19:47:49.719Z,14.50
2018-11-02T19:50:17.676Z,14.80
2018-11-02T19:52:44.780Z,16.60
2018-11-02T19:55:12.660Z,13.33
2018-11-02T19:57:40.668Z,13.77
2018-11-02T20:00:09.269Z,16.27
2018-11-02T20:02:36.792Z,17.20
2018-11-02T20:05:05.136Z,14.20
2018-11-02T20:07:32.251Z,15.73
2018-11-02T20:09:59.359Z,14.60
2018-11-02T20:12:26.460Z,16.67
2018-11-02T20:14:53.577Z,16.13
2018-11-02T20:17:20.688Z,22.90
2018-11-02T20:19:47.785Z,19.67
2018-11-02T20:22:14.881Z,19.10
2018-11-02T20:24:41.965Z,19.03
2018-11-02T20:27:09.078Z,19.37
2018-11-02T20:29:36.988Z,19.77
2018-11-02T20:32:04.177Z,20.90
2018-11-02T20:34:31.257Z,18.87
2018-11-02T20:36:58.353Z,18.83
2018-11-02T20:39:25.462Z,19.37
2018-11-02T20:41:52.644Z,17.65
2018-11-02T20:44:19.757Z,19.97
2018-11-02T20:46:46.898Z,16.25
2018-11-02T20:49:13.992Z,19.83
2018-11-02T20:51:41.080Z,19.00
2018-11-02T20:54:08.232Z,19.67
2018-11-02T20:56:35.336Z,19.13
2018-11-02T20:59:02.501Z,18.27
2018-11-02T21:01:29.596Z,17.57
2018-11-02T21:03:56.696Z,18.37
2018-11-02T21:06:23.821Z,17.73
2018-11-02T21:08:51.096Z,16.32
2018-11-02T21:11:18.161Z,17.23
2018-11-02T21:13:45.229Z,16.00
2018-11-02T21:16:12.397Z,21.30
2018-11-02T21:18:39.453Z,17.77
2018-11-02T21:21:06.583Z,15.43
2018-11-02T21:23:33.661Z,18.03
2018-11-02T21:26:00.757Z,18.07
2018-11-02T21:28:27.909Z,15.00
2018-11-02T21:30:54.997Z,17.47
2018-11-02T21:33:22.093Z,15.20
2018-11-02T21:35:49.201Z,15.63
2018-11-02T21:38:16.341Z,17.87
2018-11-02T21:40:43.436Z,14.63
2018-11-02T21:43:10.557Z,14.28
2018-11-02T21:45:37.669Z,18.27
2018-11-02T21:48:04.890Z,15.68
2018-11-02T21:50:31.989Z,16.07
2018-11-02T21:52:59.084Z,13.78
2018-11-02T21:55:26.200Z,15.83
2018-11-02T21:57:53.336Z,15.53
2018-11-02T22:00:21.895Z,16.87
2018-11-02T22:02:48.979Z,14.53
2018-11-02T22:05:16.104Z,17.07
2018-11-02T22:07:44.635Z,15.30
2018-11-02T22:10:12.292Z,22.98
2018-11-02T22:12:39.436Z,19.92
2018-11-02T22:15:07.476Z,18.92
2018-11-02T22:17:34.608Z,22.22
2018-11-02T22:20:01.752Z,19.40
2018-11-02T22:22:28.907Z,18.20
2018-11-02T22:24:56.420Z,17.48
2018-11-02T22:27:23.541Z,21.87
2018-11-02T22:29:50.636Z,20.55
2018-11-02T22:32:17.767Z,18.77
2018-11-02T22:34:44.885Z,18.20
2018-11-02T22:37:11.993Z,19.77
2018-11-02T22:39:39.103Z,18.48
2018-11-02T22:42:06.392Z,18.15
2018-11-02T22:44:33.496Z,15.48
2018-11-02T22:47:00.598Z,16.32
2018-11-02T22:49:27.925Z,16.15
2018-11-02T22:51:55.067Z,18.10
2018-11-02T22:54:22.192Z,16.67
2018-11-02T22:56:49.293Z,17.65
2018-11-02T22:59:16.412Z,20.70
2018-11-02T23:01:43.504Z,15.08
2018-11-02T23:04:10.600Z,16.45
2018-11-02T23:06:37.824Z,21.55
2018-11-02T23:09:07.236Z,16.42
2018-11-02T23:11:34.340Z,19.30
2018-11-02T23:14:01.449Z,18.35
2018-11-02T23:16:28.545Z,17.70
2018-11-02T23:18:55.644Z,19.65
2018-11-02T23:21:22.748Z,17.82
2018-11-02T23:23:49.839Z,15.78
2018-11-02T23:26:17.017Z,17.02
2018-11-02T23:28:44.126Z,22.40
2018-11-02T23:31:11.233Z,19.17
2018-11-02T23:33:38.344Z,21.17
2018-11-02T23:36:05.452Z,19.87
2018-11-02T23:38:32.572Z,22.07
2018-11-02T23:40:59.681Z,18.02
2018-11-02T23:43:26.767Z,17.57
2018-11-02T23:45:53.876Z,19.37
2018-11-02T23:48:20.980Z,20.62
2018-11-02T23:50:50.124Z,18.92
2018-11-02T23:53:17.548Z,20.10
2018-11-02T23:55:45.376Z,20.77
2018-11-02T23:58:12.560Z,19.15
